Time;durP1;ratioP1;P1;durP2;ratioP2;P2;SDS_P1;SDS_P2;PMS_P1;PMS_P2;Temp;Humidity;BMP_temperature;BMP_pressure;BME280_temperature;BME280_humidity;BME280_pressure;Samples;Min_cycle;Max_cycle;Signal;HPM_P1;HPM_P2
2023/06/11 00:00:27;;;;;;;12.07;8.23;;;21.50;69.20;;;;;;5044687;28;20794;-70
2023/06/11 00:02:56;;;;;;;10.90;7.63;;;21.50;69.50;;;;;;5047149;28;20524;-71
2023/06/11 00:05:27;;;;;;;10.00;7.30;;;21.40;69.50;;;;;;5043034;28;20617;-71
2023/06/11 00:08:00;;;;;;;15.27;8.30;;;21.40;69.50;;;;;;5046751;28;20480;-70
2023/06/11 00:10:25;;;;;;;12.03;7.47;;;21.30;69.70;;;;;;5043138;28;20430;-70
2023/06/11 00:12:51;;;;;;;10.87;7.93;;;21.30;69.80;;;;;;5049346;28;20847;-71
2023/06/11 00:15:17;;;;;;;9.10;7.20;;;21.30;69.80;;;;;;5047404;28;20250;-73
2023/06/11 00:17:42;;;;;;;11.40;8.13;;;21.30;69.80;;;;;;5051579;28;20221;-71
2023/06/11 00:20:11;;;;;;;13.13;8.10;;;21.30;69.80;;;;;;5043335;28;20278;-71
2023/06/11 00:22:41;;;;;;;11.73;7.70;;;21.20;69.80;;;;;;5049019;28;20619;-71
2023/06/11 00:25:09;;;;;;;14.13;8.20;;;21.20;69.90;;;;;;5056463;28;20477;-73
2023/06/11 00:27:35;;;;;;;10.40;7.60;;;21.30;69.90;;;;;;5053992;28;20931;-71
2023/06/11 00:30:04;;;;;;;9.97;7.07;;;21.20;69.90;;;;;;5045415;28;20436;-72
2023/06/11 00:32:30;;;;;;;10.27;7.50;;;21.20;69.90;;;;;;5038049;28;20494;-71
2023/06/11 00:34:56;;;;;;;13.27;8.73;;;21.10;70.10;;;;;;5039557;28;20435;-72
2023/06/11 00:37:22;;;;;;;14.10;8.60;;;21.10;70.10;;;;;;5060262;28;20441;-70
2023/06/11 00:39:48;;;;;;;11.73;8.20;;;21.10;70.10;;;;;;5056601;28;20184;-71
2023/06/11 00:42:13;;;;;;;11.03;7.00;;;21.00;70.20;;;;;;5066075;28;20457;-71
2023/06/11 00:44:39;;;;;;;15.00;8.60;;;21.00;70.40;;;;;;5048237;28;20250;-71
2023/06/11 00:47:06;;;;;;;10.67;7.63;;;20.90;70.40;;;;;;5042550;28;20187;-72
2023/06/11 00:49:32;;;;;;;11.03;8.50;;;20.90;70.80;;;;;;5044186;28;20216;-71
2023/06/11 00:51:58;;;;;;;11.83;8.00;;;20.80;70.80;;;;;;5043575;28;20457;-71
2023/06/11 00:54:23;;;;;;;11.07;7.50;;;20.80;71.00;;;;;;5046618;28;20551;-72
2023/06/11 00:56:51;;;;;;;10.40;7.70;;;20.80;71.10;;;;;;5062062;28;20178;-73
2023/06/11 00:59:17;;;;;;;11.97;8.23;;;20.80;71.10;;;;;;5053844;28;20206;-71
2023/06/11 01:02:06;;;;;;;10.50;7.03;;;20.80;71.30;;;;;;5055405;28;20507;-72
2023/06/11 01:04:35;;;;;;;11.87;8.00;;;20.80;71.30;;;;;;5046545;28;20867;-72
2023/06/11 01:07:05;;;;;;;13.03;8.23;;;20.80;71.40;;;;;;5042550;28;20433;-71
2023/06/11 01:09:31;;;;;;;10.30;7.93;;;20.80;71.40;;;;;;5047868;28;20422;-72
2023/06/11 01:11:58;;;;;;;17.70;9.27;;;20.80;71.60;;;;;;5045156;28;20464;-70
2023/06/11 01:14:24;;;;;;;11.20;7.80;;;20.70;71.60;;;;;;5028924;28;20538;-72
2023/06/11 01:17:04;;;;;;;11.27;8.10;;;20.80;71.70;;;;;;5045237;28;20433;-70
2023/06/11 01:19:48;;;;;;;11.40;8.13;;;20.70;71.70;;;;;;5045004;28;20425;-71
2023/06/11 01:22:22;;;;;;;12.10;7.87;;;20.70;71.70;;;;;;5040921;28;20833;-71
2023/06/11 01:25:25;;;;;;;12.63;8.00;;;20.70;71.80;;;;;;5047129;28;21034;-71
2023/06/11 01:28:09;;;;;;;13.90;8.20;;;20.70;72.00;;;;;;5029473;28;20417;-69
2023/06/11 01:30:43;;;;;;;11.57;7.73;;;20.70;71.80;;;;;;5039907;28;20420;-70
2023/06/11 01:33:08;;;;;;;11.47;8.20;;;20.60;72.00;;;;;;5026111;28;20449;-69
2023/06/11 01:35:35;;;;;;;11.40;8.03;;;20.60;72.00;;;;;;5043619;28;20786;-72
2023/06/11 01:38:02;;;;;;;13.23;8.17;;;20.50;72.10;;;;;;5048626;28;20185;-72
2023/06/11 01:40:28;;;;;;;14.47;7.87;;;20.50;72.30;;;;;;5048199;28;20461;-72
2023/06/11 01:42:55;;;;;;;11.50;8.57;;;20.30;72.70;;;;;;5047306;28;20483;-71
2023/06/11 01:45:22;;;;;;;11.50;8.33;;;20.20;72.90;;;;;;5041404;28;20491;-72
2023/06/11 01:47:51;;;;;;;12.83;9.07;;;20.10;73.30;;;;;;5044507;28;20432;-72
2023/06/11 01:50:17;;;;;;;14.23;8.30;;;20.10;73.60;;;;;;5043696;28;21228;-70
2023/06/11 01:52:44;;;;;;;12.80;7.63;;;20.00;73.90;;;;;;5047496;28;20451;-70
2023/06/11 01:55:10;;;;;;;12.60;8.23;;;19.90;74.20;;;;;;5042981;28;20416;-71
2023/06/11 01:57:36;;;;;;;11.17;7.60;;;19.80;74.50;;;;;;5042727;28;20996;-71
2023/06/11 02:00:09;;;;;;;10.63;7.80;;;19.70;74.90;;;;;;5045718;28;20428;-72
2023/06/11 02:02:35;;;;;;;11.50;7.90;;;19.60;75.40;;;;;;5038338;28;20469;-72
2023/06/11 02:05:01;;;;;;;13.03;8.30;;;19.60;75.50;;;;;;5045750;28;20754;-73
2023/06/11 02:07:27;;;;;;;15.47;9.07;;;19.50;75.80;;;;;;5046479;28;20855;-71
2023/06/11 02:09:53;;;;;;;12.50;8.50;;;19.40;76.10;;;;;;5046541;28;20552;-71
2023/06/11 02:12:19;;;;;;;11.60;7.87;;;19.40;76.20;;;;;;5045410;28;20486;-73
2023/06/11 02:14:44;;;;;;;14.60;8.60;;;19.40;76.50;;;;;;5051891;28;20509;-72
2023/06/11 02:17:10;;;;;;;13.23;8.27;;;19.30;76.70;;;;;;5046285;28;20196;-70
2023/06/11 02:19:36;;;;;;;15.33;8.60;;;19.30;76.80;;;;;;5045935;28;20193;-71
2023/06/11 02:22:01;;;;;;;12.30;8.70;;;19.20;76.80;;;;;;5045946;28;20211;-72
2023/06/11 02:24:27;;;;;;;13.50;8.90;;;19.20;77.10;;;;;;5044047;28;20196;-70
2023/06/11 02:26:52;;;;;;;13.03;8.97;;;19.10;77.30;;;;;;5029754;28;20291;-70
2023/06/11 02:29:18;;;;;;;11.97;8.80;;;19.20;77.30;;;;;;5042584;28;20269;-70
2023/06/11 02:31:44;;;;;;;13.07;9.10;;;19.00;77.40;;;;;;5041368;28;20259;-70
2023/06/11 02:34:09;;;;;;;12.97;8.57;;;19.00;77.80;;;;;;5042994;28;20227;-71
2023/06/11 02:36:36;;;;;;;12.40;8.77;;;19.00;77.70;;;;;;5024109;28;20184;-70
2023/06/11 02:39:02;;;;;;;12.10;7.90;;;19.00;77.80;;;;;;5027736;28;20193;-70
2023/06/11 02:41:27;;;;;;;12.13;8.57;;;19.00;77.70;;;;;;5049907;28;20471;-72
2023/06/11 02:43:53;;;;;;;13.73;8.53;;;19.00;77.80;;;;;;5027310;28;20179;-69
2023/06/11 02:46:18;;;;;;;11.27;7.80;;;19.00;77.80;;;;;;5047744;28;20230;-69
2023/06/11 02:48:44;;;;;;;14.37;8.80;;;18.90;78.00;;;;;;5052431;28;20180;-70
2023/06/11 02:51:09;;;;;;;14.80;9.20;;;18.90;78.10;;;;;;5044958;28;20287;-72
2023/06/11 02:53:35;;;;;;;16.17;8.50;;;18.90;78.30;;;;;;5045519;28;20184;-71
2023/06/11 02:56:00;;;;;;;12.00;9.10;;;18.80;78.30;;;;;;5045955;28;20194;-72
2023/06/11 02:58:26;;;;;;;13.90;9.10;;;18.80;78.60;;;;;;5046867;28;20577;-71
2023/06/11 03:00:52;;;;;;;13.80;8.87;;;18.80;78.70;;;;;;5045058;28;20630;-71
2023/06/11 03:03:17;;;;;;;13.23;8.47;;;18.70;78.70;;;;;;5027091;28;20256;-71
2023/06/11 03:05:43;;;;;;;11.70;8.60;;;18.70;78.90;;;;;;5044166;28;20208;-71
2023/06/11 03:08:08;;;;;;;16.50;10.30;;;18.70;79.20;;;;;;5047511;28;20187;-71
2023/06/11 03:10:34;;;;;;;12.23;9.00;;;18.60;79.20;;;;;;5048259;28;20239;-70
2023/06/11 03:12:59;;;;;;;12.30;8.30;;;18.70;79.30;;;;;;5050375;28;20259;-70
2023/06/11 03:15:25;;;;;;;12.33;8.70;;;18.60;79.20;;;;;;5044094;28;20238;-71
2023/06/11 03:17:50;;;;;;;16.00;8.73;;;18.60;79.30;;;;;;5044369;28;20191;-71
2023/06/11 03:20:16;;;;;;;14.87;9.47;;;18.60;79.50;;;;;;5045096;28;20195;-71
2023/06/11 03:22:42;;;;;;;14.70;8.40;;;18.60;79.30;;;;;;5048944;28;20220;-73
2023/06/11 03:25:07;;;;;;;13.40;8.50;;;18.60;79.30;;;;;;5062414;28;20940;-71
2023/06/11 03:27:33;;;;;;;13.30;9.50;;;18.60;79.50;;;;;;5061701;28;20226;-70
2023/06/11 03:29:58;;;;;;;13.40;8.87;;;18.60;79.50;;;;;;5058774;28;20195;-70
2023/06/11 03:32:24;;;;;;;14.03;9.13;;;18.50;79.60;;;;;;5060490;28;20211;-70
2023/06/11 03:34:51;;;;;;;12.40;8.83;;;18.40;79.90;;;;;;5058632;28;20192;-70
2023/06/11 03:37:17;;;;;;;13.73;8.40;;;18.40;80.00;;;;;;5056776;28;20190;-70
2023/06/11 03:39:43;;;;;;;14.93;8.57;;;18.40;79.90;;;;;;5059729;28;20936;-70
2023/06/11 03:42:09;;;;;;;14.50;8.10;;;18.40;79.90;;;;;;5050793;28;20465;-71
2023/06/11 03:44:35;;;;;;;10.90;7.90;;;18.40;79.90;;;;;;5044450;28;20206;-70
2023/06/11 03:47:00;;;;;;;10.37;7.80;;;18.40;79.70;;;;;;5047696;28;20460;-70
2023/06/11 03:49:26;;;;;;;13.07;8.90;;;18.40;79.70;;;;;;5042301;28;20541;-70
2023/06/11 03:51:52;;;;;;;12.67;8.40;;;18.40;79.60;;;;;;5047301;28;20282;-70
2023/06/11 03:54:17;;;;;;;15.93;8.60;;;18.40;79.60;;;;;;5047279;28;20180;-71
2023/06/11 03:56:43;;;;;;;14.60;7.73;;;18.40;79.70;;;;;;5043796;28;20199;-70
2023/06/11 03:59:08;;;;;;;12.50;8.60;;;18.40;79.60;;;;;;5022888;28;20183;-70
2023/06/11 04:01:34;;;;;;;10.47;7.43;;;18.40;79.70;;;;;;5042214;28;20217;-70
2023/06/11 04:04:00;;;;;;;12.60;7.90;;;18.40;79.60;;;;;;5047298;28;20192;-70
2023/06/11 04:06:27;;;;;;;11.27;8.10;;;18.40;79.60;;;;;;5027571;28;20211;-71
2023/06/11 04:08:53;;;;;;;13.10;8.37;;;18.40;79.70;;;;;;5039564;28;20183;-69
2023/06/11 04:11:18;;;;;;;13.87;8.67;;;18.40;79.70;;;;;;5030676;28;20867;-71
2023/06/11 04:13:49;;;;;;;14.10;8.90;;;18.40;79.60;;;;;;5050303;28;20191;-71
2023/06/11 04:16:18;;;;;;;14.80;8.47;;;18.40;79.70;;;;;;5044695;28;20184;-72
2023/06/11 04:18:44;;;;;;;11.33;7.73;;;18.40;79.60;;;;;;5046731;28;20797;-72
2023/06/11 04:21:09;;;;;;;12.37;8.83;;;18.40;79.90;;;;;;5046708;28;20439;-71
2023/06/11 04:23:36;;;;;;;10.90;8.23;;;18.50;79.70;;;;;;5051051;28;20662;-71
2023/06/11 04:26:02;;;;;;;10.33;7.93;;;18.50;79.70;;;;;;5049596;28;20291;-73
2023/06/11 04:28:28;;;;;;;11.97;8.03;;;18.50;79.70;;;;;;5043123;28;20465;-70
2023/06/11 04:30:57;;;;;;;11.13;8.10;;;18.50;79.70;;;;;;5044447;28;20845;-71
2023/06/11 04:33:32;;;;;;;10.67;7.90;;;18.60;79.50;;;;;;5043913;28;20714;-71
2023/06/11 04:36:01;;;;;;;11.80;8.23;;;18.70;79.20;;;;;;5047992;28;20949;-71
2023/06/11 04:38:30;;;;;;;11.73;8.20;;;18.70;79.20;;;;;;5052928;28;20430;-71
2023/06/11 04:40:56;;;;;;;13.43;9.40;;;18.80;79.00;;;;;;5053025;28;20430;-71
2023/06/11 04:43:23;;;;;;;12.13;8.17;;;18.80;78.70;;;;;;5055566;28;20463;-70
2023/06/11 04:45:49;;;;;;;15.17;8.53;;;18.90;78.60;;;;;;5050049;28;20507;-70
2023/06/11 04:48:20;;;;;;;11.03;7.73;;;19.00;78.00;;;;;;5044890;28;20413;-69
2023/06/11 04:50:46;;;;;;;11.80;8.33;;;19.10;78.00;;;;;;5039233;28;20421;-70
2023/06/11 04:53:12;;;;;;;12.60;8.70;;;19.20;77.70;;;;;;5039227;28;20966;-69
2023/06/11 04:55:38;;;;;;;14.53;9.00;;;19.20;77.60;;;;;;5041570;28;20465;-70
2023/06/11 04:58:04;;;;;;;14.33;9.23;;;19.30;77.40;;;;;;5046649;28;20553;-70
2023/06/11 05:00:30;;;;;;;10.70;8.10;;;19.40;77.30;;;;;;5042754;28;20908;-69
2023/06/11 05:02:56;;;;;;;11.63;8.70;;;19.40;77.00;;;;;;5039269;28;20209;-71
2023/06/11 05:05:21;;;;;;;11.70;8.30;;;19.40;76.40;;;;;;5047473;28;20363;-72
2023/06/11 05:07:47;;;;;;;15.43;8.50;;;19.50;76.20;;;;;;5043366;28;20519;-71
2023/06/11 05:10:13;;;;;;;12.93;8.77;;;19.60;75.90;;;;;;5043022;28;20683;-72
2023/06/11 05:12:39;;;;;;;12.43;8.27;;;19.70;75.80;;;;;;5042188;28;20205;-71
2023/06/11 05:15:05;;;;;;;14.00;8.70;;;19.70;75.10;;;;;;5040771;28;20424;-71
2023/06/11 05:17:32;;;;;;;13.10;8.67;;;19.80;74.50;;;;;;5044715;28;20644;-72
2023/06/11 05:19:58;;;;;;;12.77;7.90;;;19.90;74.20;;;;;;5041211;28;20568;-73
2023/06/11 05:22:23;;;;;;;12.77;7.90;;;20.00;74.00;;;;;;5047724;28;20951;-71
2023/06/11 05:24:49;;;;;;;11.73;8.30;;;20.10;73.60;;;;;;5031606;28;20673;-70
2023/06/11 05:27:15;;;;;;;12.50;8.33;;;20.10;73.30;;;;;;5047386;28;20674;-70
2023/06/11 05:29:41;;;;;;;13.30;8.03;;;20.20;72.90;;;;;;5046360;28;20270;-71
2023/06/11 05:32:08;;;;;;;9.77;7.03;;;20.30;72.30;;;;;;5043102;28;20209;-70
2023/06/11 05:34:34;;;;;;;11.27;7.80;;;20.30;72.00;;;;;;5048185;28;20189;-70
2023/06/11 05:37:00;;;;;;;11.03;7.93;;;20.40;71.80;;;;;;5043945;28;20502;-71
2023/06/11 05:39:26;;;;;;;12.80;8.57;;;20.40;71.80;;;;;;5043405;28;20191;-70
2023/06/11 05:41:52;;;;;;;10.63;7.67;;;20.40;71.70;;;;;;5039371;28;20455;-71
2023/06/11 05:44:17;;;;;;;12.40;7.60;;;20.40;71.60;;;;;;5031670;28;20188;-71
2023/06/11 05:46:43;;;;;;;11.40;8.30;;;20.50;71.10;;;;;;5037337;28;20212;-71
2023/06/11 05:49:08;;;;;;;11.17;8.53;;;20.50;71.30;;;;;;5031194;28;20622;-71
2023/06/11 05:51:35;;;;;;;12.63;8.07;;;20.40;71.40;;;;;;5022130;28;20241;-71
2023/06/11 05:54:01;;;;;;;11.30;7.67;;;20.40;71.70;;;;;;5048796;28;20675;-72
2023/06/11 05:56:27;;;;;;;12.73;8.60;;;20.40;71.40;;;;;;5042089;28;20427;-71
2023/06/11 05:58:52;;;;;;;10.20;7.60;;;20.50;71.40;;;;;;5031621;28;20923;-70
2023/06/11 06:01:18;;;;;;;13.23;9.50;;;20.60;71.00;;;;;;5037411;28;20213;-72
2023/06/11 06:03:43;;;;;;;14.07;9.20;;;20.50;71.30;;;;;;5042812;28;20189;-70
2023/06/11 06:06:09;;;;;;;10.10;7.87;;;20.60;70.80;;;;;;5042800;28;20589;-70
2023/06/11 06:08:35;;;;;;;11.97;8.87;;;20.70;70.70;;;;;;5047218;28;20182;-70
2023/06/11 06:11:01;;;;;;;11.97;8.20;;;20.80;70.70;;;;;;5051997;28;20178;-70
2023/06/11 06:13:27;;;;;;;13.47;7.60;;;20.90;70.20;;;;;;5046983;28;20942;-75
2023/06/11 06:15:53;;;;;;;10.60;8.60;;;21.00;69.80;;;;;;5045294;28;20186;-69
2023/06/11 06:18:18;;;;;;;10.97;7.60;;;21.10;69.70;;;;;;5048615;28;20589;-73
2023/06/11 06:20:44;;;;;;;14.50;8.37;;;21.20;69.50;;;;;;5047011;28;20191;-73
2023/06/11 06:23:10;;;;;;;9.97;8.23;;;21.20;69.50;;;;;;5028174;28;20475;-75
2023/06/11 06:25:37;;;;;;;12.03;8.20;;;21.30;69.40;;;;;;5044772;28;20299;-74
2023/06/11 06:28:04;;;;;;;8.47;6.97;;;21.40;69.20;;;;;;5050124;28;20425;-72
2023/06/11 06:30:32;;;;;;;13.20;8.93;;;21.40;68.80;;;;;;5053850;28;20519;-73
2023/06/11 06:32:58;;;;;;;13.03;9.07;;;21.40;68.30;;;;;;5051363;28;20456;-73
2023/06/11 06:35:23;;;;;;;10.30;8.20;;;21.50;68.50;;;;;;5031751;28;20436;-73
2023/06/11 06:37:49;;;;;;;10.63;8.40;;;21.60;68.30;;;;;;5054524;28;20194;-74
2023/06/11 06:40:15;;;;;;;10.87;7.80;;;21.60;67.90;;;;;;5054338;28;20191;-73
2023/06/11 06:42:40;;;;;;;13.33;7.47;;;21.70;67.50;;;;;;5048051;28;20694;-71
2023/06/11 06:45:06;;;;;;;12.90;8.50;;;21.70;67.00;;;;;;5050378;28;20318;-72
2023/06/11 06:47:32;;;;;;;10.03;7.70;;;21.80;66.90;;;;;;5051713;28;20187;-71
2023/06/11 06:49:57;;;;;;;13.40;8.43;;;21.80;66.60;;;;;;5054862;28;20428;-72
2023/06/11 06:52:23;;;;;;;11.50;8.50;;;21.80;66.40;;;;;;5024623;28;20682;-74
2023/06/11 06:54:51;;;;;;;11.10;8.33;;;21.90;66.40;;;;;;5048163;28;20198;-73
2023/06/11 06:57:17;;;;;;;10.47;8.20;;;22.00;66.30;;;;;;5048010;28;20673;-73
2023/06/11 06:59:43;;;;;;;13.43;8.20;;;22.00;66.10;;;;;;5049842;28;20426;-73
2023/06/11 07:02:09;;;;;;;11.70;8.50;;;22.00;66.00;;;;;;5029158;28;20204;-72
2023/06/11 07:04:34;;;;;;;10.10;7.70;;;22.10;65.70;;;;;;5054139;28;20781;-74
2023/06/11 07:07:00;;;;;;;13.30;8.47;;;22.10;65.30;;;;;;5046632;28;20192;-73
2023/06/11 07:09:26;;;;;;;11.70;7.73;;;22.20;65.10;;;;;;5049187;28;20187;-72
2023/06/11 07:11:52;;;;;;;12.37;8.73;;;22.20;65.10;;;;;;5046877;28;20210;-73
2023/06/11 07:14:18;;;;;;;10.43;7.93;;;22.30;65.00;;;;;;5033872;28;20198;-72
2023/06/11 07:16:44;;;;;;;12.33;7.30;;;22.40;64.70;;;;;;5050641;28;20449;-71
2023/06/11 07:19:10;;;;;;;11.40;8.00;;;22.40;64.40;;;;;;5052221;28;20427;-73
2023/06/11 07:21:36;;;;;;;12.60;8.23;;;22.40;64.20;;;;;;5046176;28;20228;-72
2023/06/11 07:24:04;;;;;;;11.00;8.13;;;22.40;64.50;;;;;;5028266;28;20520;-73
2023/06/11 07:26:30;;;;;;;12.37;8.27;;;22.30;64.40;;;;;;5029027;28;20478;-74
2023/06/11 07:28:56;;;;;;;15.10;8.40;;;22.40;64.20;;;;;;5041309;28;20529;-74
2023/06/11 07:31:21;;;;;;;12.07;8.97;;;22.40;64.20;;;;;;5044593;28;20226;-75
2023/06/11 07:33:49;;;;;;;10.40;7.90;;;22.40;64.50;;;;;;5043385;28;20200;-71
2023/06/11 07:36:15;;;;;;;11.17;8.10;;;22.50;64.70;;;;;;5047850;28;20600;-73
2023/06/11 07:38:42;;;;;;;11.50;8.50;;;22.60;63.90;;;;;;5040617;28;20431;-73
2023/06/11 07:41:08;;;;;;;10.67;8.40;;;22.80;63.90;;;;;;5050466;28;20450;-71
2023/06/11 07:43:33;;;;;;;11.30;8.60;;;22.80;63.50;;;;;;5046488;28;20577;-72
2023/06/11 07:45:59;;;;;;;11.07;8.00;;;22.80;63.80;;;;;;5051572;28;20255;-72
2023/06/11 07:48:25;;;;;;;12.07;8.33;;;22.90;63.40;;;;;;5022266;28;20186;-74
2023/06/11 07:50:52;;;;;;;10.87;7.73;;;23.00;63.20;;;;;;5050013;28;20190;-74
2023/06/11 07:53:19;;;;;;;10.00;7.83;;;23.00;63.10;;;;;;5040859;28;20205;-74
2023/06/11 07:55:45;;;;;;;9.20;7.20;;;23.10;62.90;;;;;;5048441;28;20425;-75
2023/06/11 07:58:10;;;;;;;10.63;7.77;;;23.20;62.50;;;;;;5051391;28;20447;-73
2023/06/11 08:00:36;;;;;;;10.63;7.93;;;23.30;61.90;;;;;;5050341;28;20825;-72
2023/06/11 08:03:01;;;;;;;9.90;7.50;;;23.40;61.90;;;;;;5047561;28;20223;-71
2023/06/11 08:05:27;;;;;;;10.73;8.13;;;23.40;61.50;;;;;;5043233;28;20215;-72
2023/06/11 08:07:53;;;;;;;11.53;6.93;;;23.30;61.70;;;;;;5040683;28;20183;-74
2023/06/11 08:10:18;;;;;;;11.77;7.63;;;23.40;61.30;;;;;;5046508;28;20655;-71
2023/06/11 08:12:44;;;;;;;10.90;8.47;;;23.60;60.60;;;;;;5054398;28;20209;-72
2023/06/11 08:15:10;;;;;;;8.60;7.13;;;23.70;60.10;;;;;;5049898;28;20197;-74
2023/06/11 08:17:35;;;;;;;8.43;7.27;;;23.70;59.90;;;;;;5046976;28;20196;-72
2023/06/11 08:20:03;;;;;;;8.17;7.30;;;23.70;60.60;;;;;;5039216;28;20288;-73
2023/06/11 08:22:28;;;;;;;8.47;6.50;;;23.70;60.30;;;;;;5050202;28;20212;-72
2023/06/11 08:24:54;;;;;;;11.57;7.87;;;23.70;60.40;;;;;;5040239;28;20510;-72
2023/06/11 08:27:19;;;;;;;9.07;7.43;;;23.70;60.70;;;;;;5044522;28;20286;-74
2023/06/11 08:29:45;;;;;;;9.97;7.30;;;23.80;60.40;;;;;;5035596;28;20210;-74
2023/06/11 08:32:10;;;;;;;9.90;8.00;;;23.90;59.90;;;;;;5053164;28;20212;-74
2023/06/11 08:34:36;;;;;;;9.10;7.07;;;23.90;60.30;;;;;;5043296;28;20298;-73
2023/06/11 08:37:03;;;;;;;12.13;7.40;;;23.90;60.10;;;;;;5048261;28;20290;-71
2023/06/11 08:39:29;;;;;;;12.83;7.97;;;24.00;59.90;;;;;;5049291;28;20204;-73
2023/06/11 08:41:54;;;;;;;10.80;8.03;;;24.10;59.30;;;;;;5032171;28;20511;-75
2023/06/11 08:44:21;;;;;;;10.63;8.40;;;24.20;59.20;;;;;;5044074;28;20249;-75
2023/06/11 08:46:48;;;;;;;8.73;7.30;;;24.20;58.80;;;;;;5046078;28;20211;-73
2023/06/11 08:49:22;;;;;;;14.97;7.90;;;24.30;58.80;;;;;;5046592;28;20586;-74
2023/06/11 08:51:49;;;;;;;9.57;7.17;;;24.30;57.80;;;;;;5043807;28;20472;-75
2023/06/11 08:54:15;;;;;;;10.40;7.50;;;24.30;57.80;;;;;;5042403;28;20420;-74
2023/06/11 08:56:41;;;;;;;9.17;7.50;;;24.30;57.80;;;;;;5040557;28;20794;-72
2023/06/11 08:59:07;;;;;;;10.20;7.10;;;24.40;57.60;;;;;;5039444;28;20964;-76
2023/06/11 09:01:33;;;;;;;10.27;8.00;;;24.50;57.00;;;;;;5043117;28;20538;-73
2023/06/11 09:04:00;;;;;;;9.87;7.87;;;24.60;56.60;;;;;;5039638;28;21024;-73
2023/06/11 09:06:26;;;;;;;8.90;7.20;;;24.70;56.80;;;;;;5047223;28;20332;-74
2023/06/11 09:09:03;;;;;;;10.37;7.73;;;24.80;56.60;;;;;;5039214;28;20873;-73
2023/06/11 09:11:36;;;;;;;10.10;7.30;;;24.90;55.40;;;;;;5049840;28;20470;-72
2023/06/11 09:14:03;;;;;;;10.67;7.20;;;25.00;55.40;;;;;;5023538;28;20435;-71
2023/06/11 09:16:36;;;;;;;9.30;7.50;;;25.00;54.80;;;;;;5042833;28;20437;-73
2023/06/11 09:19:02;;;;;;;10.47;7.50;;;24.80;55.00;;;;;;5048567;28;20435;-75
2023/06/11 09:21:28;;;;;;;10.27;7.40;;;24.80;55.20;;;;;;5045321;28;20467;-72
2023/06/11 09:23:53;;;;;;;8.63;7.43;;;24.90;55.60;;;;;;5048674;28;20221;-73
2023/06/11 09:26:19;;;;;;;9.13;6.70;;;25.00;55.30;;;;;;5039058;28;20214;-73
2023/06/11 09:28:46;;;;;;;12.00;8.00;;;25.10;54.80;;;;;;5042663;28;20278;-73
2023/06/11 09:31:12;;;;;;;8.13;6.90;;;25.10;54.40;;;;;;5039294;28;20201;-73
2023/06/11 09:33:37;;;;;;;10.10;6.20;;;25.20;54.20;;;;;;5047955;28;20455;-74
2023/06/11 09:36:03;;;;;;;8.30;6.93;;;25.30;53.00;;;;;;5027016;28;20327;-74
2023/06/11 09:38:33;;;;;;;11.43;7.00;;;25.40;52.80;;;;;;5047613;28;20222;-73
2023/06/11 09:40:59;;;;;;;9.77;7.00;;;25.50;51.60;;;;;;5037416;28;20650;-73
2023/06/11 09:43:25;;;;;;;8.60;6.93;;;25.50;51.80;;;;;;5046261;28;20442;-73
2023/06/11 09:45:54;;;;;;;9.00;7.00;;;25.60;51.30;;;;;;5038271;28;21058;-74
2023/06/11 09:48:24;;;;;;;7.40;6.47;;;25.60;51.20;;;;;;5048607;28;20221;-73
2023/06/11 09:50:51;;;;;;;9.23;7.07;;;25.60;51.30;;;;;;5039392;28;20426;-71
2023/06/11 09:53:24;;;;;;;8.93;7.00;;;25.60;50.90;;;;;;5043018;28;21264;-73
2023/06/11 09:55:50;;;;;;;9.20;7.30;;;25.50;49.40;;;;;;5038941;28;20953;-75
2023/06/11 09:58:27;;;;;;;8.70;7.33;;;25.50;48.50;;;;;;5045415;28;20433;-73
2023/06/11 10:01:00;;;;;;;9.03;6.90;;;25.60;49.70;;;;;;5044399;28;20430;-73
2023/06/11 10:03:26;;;;;;;11.57;7.30;;;25.70;49.90;;;;;;5044026;28;20450;-74
2023/06/11 10:05:52;;;;;;;9.30;6.97;;;25.80;49.70;;;;;;5050746;28;21003;-73
2023/06/11 10:08:22;;;;;;;9.30;6.70;;;25.90;48.60;;;;;;5045454;28;20426;-73
2023/06/11 10:10:56;;;;;;;10.57;6.97;;;25.80;47.50;;;;;;5045685;28;20510;-73
2023/06/11 10:13:29;;;;;;;7.17;6.63;;;25.80;47.40;;;;;;5039962;28;20471;-72
2023/06/11 10:15:56;;;;;;;10.70;7.73;;;25.90;46.30;;;;;;5048506;28;20899;-73
2023/06/11 10:18:26;;;;;;;9.00;7.43;;;26.00;46.70;;;;;;5035792;28;20426;-73
2023/06/11 10:21:02;;;;;;;8.60;7.30;;;26.00;46.70;;;;;;5043659;28;20435;-73
2023/06/11 10:23:40;;;;;;;9.50;7.07;;;26.40;46.60;;;;;;5051443;28;20425;-73
2023/06/11 10:26:06;;;;;;;9.73;7.03;;;27.00;44.20;;;;;;5050675;28;20848;-73
2023/06/11 10:28:36;;;;;;;9.97;7.10;;;27.40;43.50;;;;;;5047345;28;20427;-72
2023/06/11 10:31:02;;;;;;;11.50;7.00;;;27.50;42.70;;;;;;5032886;28;20509;-70
2023/06/11 10:33:45;;;;;;;10.23;6.80;;;27.80;42.00;;;;;;5047171;28;20837;-72
2023/06/11 10:36:27;;;;;;;9.53;6.93;;;28.10;41.80;;;;;;5031775;28;20849;-74
2023/06/11 10:39:06;;;;;;;7.97;7.07;;;28.20;41.60;;;;;;5044627;28;20427;-73
2023/06/11 10:41:31;;;;;;;15.30;7.20;;;28.40;41.40;;;;;;5039516;28;20458;-73
2023/06/11 10:44:00;;;;;;;10.50;7.10;;;28.40;41.10;;;;;;5041241;28;20518;-73
2023/06/11 10:46:25;;;;;;;10.87;7.80;;;28.20;41.20;;;;;;5039821;28;20300;-74
2023/06/11 10:48:52;;;;;;;10.33;7.33;;;28.20;41.20;;;;;;5046596;28;20514;-73
2023/06/11 10:51:18;;;;;;;12.10;7.53;;;27.40;42.80;;;;;;5038019;28;20649;-71
2023/06/11 10:53:54;;;;;;;9.40;7.60;;;27.60;43.10;;;;;;5049100;28;20431;-73
2023/06/11 10:56:21;;;;;;;8.43;7.60;;;27.80;43.40;;;;;;5043022;28;20791;-74
2023/06/11 10:58:51;;;;;;;11.70;7.80;;;28.10;42.60;;;;;;5048015;28;20470;-73
2023/06/11 11:01:20;;;;;;;9.70;6.87;;;28.40;41.60;;;;;;5043089;28;20539;-73
2023/06/11 11:03:48;;;;;;;12.20;7.60;;;28.50;41.40;;;;;;5026332;28;20432;-74
2023/06/11 11:06:24;;;;;;;9.73;7.90;;;28.60;41.20;;;;;;5045084;28;20962;-72
2023/06/11 11:08:51;;;;;;;8.23;7.83;;;28.80;41.90;;;;;;5045756;28;20513;-74
2023/06/11 11:11:17;;;;;;;9.60;6.93;;;28.80;41.40;;;;;;5045703;28;20544;-73
2023/06/11 11:13:46;;;;;;;9.40;7.67;;;28.90;41.50;;;;;;5046115;28;20828;-71
2023/06/11 11:16:11;;;;;;;9.20;8.00;;;28.80;40.80;;;;;;5034018;28;20185;-73
2023/06/11 11:18:37;;;;;;;8.27;6.60;;;28.80;40.70;;;;;;5046220;28;20455;-74
2023/06/11 11:21:03;;;;;;;9.43;7.00;;;29.00;40.20;;;;;;5025582;28;20370;-73
2023/06/11 11:23:31;;;;;;;10.23;7.57;;;29.00;40.30;;;;;;5045920;28;20239;-74
2023/06/11 11:25:57;;;;;;;9.77;8.20;;;28.80;40.80;;;;;;5024730;28;20232;-73
2023/06/11 11:28:22;;;;;;;6.83;6.53;;;28.60;41.40;;;;;;5040551;28;20458;-74
2023/06/11 11:30:51;;;;;;;12.47;8.67;;;28.80;40.40;;;;;;5044841;28;20646;-73
2023/06/11 11:33:16;;;;;;;20.93;7.80;;;28.50;40.00;;;;;;5024491;28;20209;-73
2023/06/11 11:35:50;;;;;;;11.93;8.90;;;28.20;41.80;;;;;;5047686;28;20466;-72
2023/06/11 11:38:17;;;;;;;10.43;6.90;;;28.60;41.40;;;;;;5041385;28;20559;-74
2023/06/11 11:40:42;;;;;;;8.77;7.43;;;28.50;41.50;;;;;;5050467;28;20431;-74
2023/06/11 11:43:14;;;;;;;11.20;8.33;;;28.30;41.00;;;;;;5041789;28;20462;-74
2023/06/11 11:45:48;;;;;;;10.90;7.67;;;28.20;40.60;;;;;;5047343;28;20248;-73
2023/06/11 11:48:15;;;;;;;9.23;7.40;;;28.10;40.30;;;;;;5038355;28;20419;-74
2023/06/11 11:50:44;;;;;;;9.60;7.40;;;28.20;40.20;;;;;;5029380;28;20420;-72
2023/06/11 11:53:15;;;;;;;11.73;7.87;;;28.10;40.30;;;;;;5026956;28;20520;-74
2023/06/11 11:55:43;;;;;;;12.37;8.20;;;27.90;41.50;;;;;;5044316;28;20743;-73
2023/06/11 11:58:12;;;;;;;12.03;7.40;;;28.00;41.60;;;;;;5046004;28;20445;-72
2023/06/11 12:00:46;;;;;;;10.00;7.60;;;28.30;40.20;;;;;;5042669;28;20429;-73
2023/06/11 12:03:11;;;;;;;8.70;7.00;;;27.90;39.20;;;;;;5047499;28;20504;-73
2023/06/11 12:05:37;;;;;;;8.40;6.47;;;27.50;39.90;;;;;;5039219;28;20468;-73
2023/06/11 12:08:07;;;;;;;8.77;7.10;;;27.90;40.00;;;;;;5042660;28;20213;-73
2023/06/11 12:10:33;;;;;;;9.97;7.30;;;28.50;39.50;;;;;;5039965;28;20424;-74
2023/06/11 12:13:00;;;;;;;8.63;7.47;;;28.80;39.20;;;;;;5047679;28;20538;-73
2023/06/11 12:15:26;;;;;;;12.67;7.90;;;28.90;38.20;;;;;;5042885;28;20184;-72
2023/06/11 12:17:52;;;;;;;9.20;7.57;;;28.70;38.60;;;;;;5050734;28;20428;-74
2023/06/11 12:20:18;;;;;;;13.40;8.13;;;28.80;39.00;;;;;;5041924;28;20424;-73
2023/06/11 12:22:44;;;;;;;11.70;7.27;;;28.90;38.30;;;;;;5048207;28;20586;-72
2023/06/11 12:25:09;;;;;;;9.53;7.97;;;29.10;38.00;;;;;;5049606;28;20458;-73
2023/06/11 12:27:36;;;;;;;10.47;8.37;;;29.20;37.80;;;;;;5047888;28;20231;-74
2023/06/11 12:30:02;;;;;;;10.70;7.30;;;28.80;37.80;;;;;;5039952;28;20181;-73
2023/06/11 12:32:29;;;;;;;10.33;7.60;;;28.50;39.60;;;;;;5048176;28;20451;-75
2023/06/11 12:34:55;;;;;;;10.53;7.00;;;28.90;39.10;;;;;;5044062;28;20416;-72
2023/06/11 12:37:21;;;;;;;10.07;7.30;;;29.30;36.80;;;;;;5048459;28;20411;-72